Time;durP1;ratioP1;P1;durP2;ratioP2;P2;SDS_P1;SDS_P2;PMS_P1;PMS_P2;Temp;Humidity;BMP_temperature;BMP_pressure;BME280_temperature;BME280_humidity;BME280_pressure;Samples;Min_cycle;Max_cycle;Signal;HPM_P1;HPM_P2
2022/12/16 00:01:23;;;;;;;62.65;25.75;;;;;;;;;;4997449;28;20042;-59
2022/12/16 00:03:50;;;;;;;62.45;25.65;;;;;;;;;;4995653;28;20040;-60
2022/12/16 00:06:15;;;;;;;55.87;25.17;;;;;;;;;;4994829;28;20041;-59
2022/12/16 00:08:40;;;;;;;54.67;23.48;;;;;;;;;;4994472;28;20472;-59
2022/12/16 00:11:06;;;;;;;57.13;25.35;;;;;;;;;;4994437;28;20044;-58
2022/12/16 00:13:32;;;;;;;49.70;21.88;;;;;;;;;;4995687;28;20038;-60
2022/12/16 00:15:58;;;;;;;54.03;23.50;;;;;;;;;;4993675;28;20029;-59
2022/12/16 00:18:24;;;;;;;52.83;24.05;;;;;;;;;;4994059;28;20033;-59
2022/12/16 00:20:53;;;;;;;59.08;23.75;;;;;;;;;;4996183;28;20119;-59
2022/12/16 00:23:18;;;;;;;48.72;21.75;;;;;;;;;;4994074;28;20061;-60
2022/12/16 00:25:44;;;;;;;57.03;25.00;;;;;;;;;;4995018;28;20113;-60
2022/12/16 00:28:11;;;;;;;60.25;22.83;;;;;;;;;;4996239;28;20057;-60
2022/12/16 00:30:36;;;;;;;56.53;22.98;;;;;;;;;;4992468;28;20044;-61
2022/12/16 00:33:02;;;;;;;56.45;23.80;;;;;;;;;;5002074;28;20030;-60
2022/12/16 00:35:29;;;;;;;54.42;22.67;;;;;;;;;;4995707;28;20040;-58
2022/12/16 00:37:54;;;;;;;61.30;24.70;;;;;;;;;;4994292;28;20049;-59
2022/12/16 00:40:20;;;;;;;55.80;23.02;;;;;;;;;;4994303;28;20034;-59
2022/12/16 00:42:45;;;;;;;64.47;23.75;;;;;;;;;;5000634;28;20034;-59
2022/12/16 00:45:10;;;;;;;46.47;21.40;;;;;;;;;;4997388;28;20038;-58
2022/12/16 00:47:36;;;;;;;49.83;21.95;;;;;;;;;;4978632;28;20100;-60
2022/12/16 00:50:01;;;;;;;48.58;21.83;;;;;;;;;;4997886;28;20038;-60
2022/12/16 00:52:26;;;;;;;56.08;23.80;;;;;;;;;;4993614;28;20096;-59
2022/12/16 00:54:51;;;;;;;52.53;22.42;;;;;;;;;;4994807;28;20034;-59
2022/12/16 00:57:17;;;;;;;52.92;23.10;;;;;;;;;;4996018;28;20025;-59
2022/12/16 00:59:42;;;;;;;56.25;23.58;;;;;;;;;;4994524;28;20108;-59
2022/12/16 01:02:09;;;;;;;53.85;23.42;;;;;;;;;;4991828;28;20125;-59
2022/12/16 01:04:35;;;;;;;54.38;23.35;;;;;;;;;;4996493;28;20029;-60
2022/12/16 01:07:00;;;;;;;52.60;21.83;;;;;;;;;;4999293;28;20040;-59
2022/12/16 01:09:25;;;;;;;56.67;23.67;;;;;;;;;;4992944;28;20030;-59
2022/12/16 01:11:51;;;;;;;57.75;25.08;;;;;;;;;;4994331;28;20033;-59
2022/12/16 01:14:16;;;;;;;61.65;24.55;;;;;;;;;;4993129;28;20389;-59
2022/12/16 01:16:41;;;;;;;60.47;23.95;;;;;;;;;;4993749;28;20500;-60
2022/12/16 01:19:07;;;;;;;60.17;24.25;;;;;;;;;;4992042;28;20451;-59
2022/12/16 01:21:32;;;;;;;59.78;23.73;;;;;;;;;;4993266;28;20085;-60
2022/12/16 01:23:58;;;;;;;54.47;22.17;;;;;;;;;;4992651;28;20034;-60
2022/12/16 01:26:23;;;;;;;58.30;24.92;;;;;;;;;;4995021;28;20026;-60
2022/12/16 01:28:48;;;;;;;59.50;24.27;;;;;;;;;;4992240;28;20088;-59
2022/12/16 01:31:15;;;;;;;54.40;23.90;;;;;;;;;;4991512;28;20053;-58
2022/12/16 01:33:40;;;;;;;58.30;23.98;;;;;;;;;;4993116;28;20034;-59
2022/12/16 01:36:07;;;;;;;53.70;22.73;;;;;;;;;;5000339;28;20446;-59
2022/12/16 01:38:32;;;;;;;56.63;23.55;;;;;;;;;;4993857;28;20097;-61
2022/12/16 01:40:58;;;;;;;57.65;23.63;;;;;;;;;;5009971;28;20392;-59
2022/12/16 01:43:25;;;;;;;54.00;21.92;;;;;;;;;;4997266;28;20026;-58
2022/12/16 01:45:50;;;;;;;;;;;;;;;;;;4993172;28;20089;-59
2022/12/16 01:48:21;;;;;;;48.78;21.30;;;;;;;;;;4992508;28;19913;-60
2022/12/16 01:50:47;;;;;;;56.22;22.88;;;;;;;;;;4992989;28;20165;-61
2022/12/16 01:53:13;;;;;;;58.53;22.60;;;;;;;;;;4993856;28;20088;-59
2022/12/16 01:55:42;;;;;;;52.63;24.00;;;;;;;;;;4992491;28;20034;-60
2022/12/16 01:58:09;;;;;;;51.70;22.83;;;;;;;;;;4997725;28;20030;-60
2022/12/16 02:00:36;;;;;;;52.95;22.15;;;;;;;;;;4991617;28;20038;-63
2022/12/16 02:03:02;;;;;;;55.25;23.63;;;;;;;;;;4993386;28;20068;-62
2022/12/16 02:05:28;;;;;;;57.05;23.30;;;;;;;;;;4993949;28;20077;-59
2022/12/16 02:07:53;;;;;;;56.20;23.88;;;;;;;;;;4989453;28;20069;-59
2022/12/16 02:10:20;;;;;;;50.70;23.90;;;;;;;;;;4992228;28;20530;-59
2022/12/16 02:12:45;;;;;;;64.87;23.20;;;;;;;;;;4993540;28;20057;-59
2022/12/16 02:15:17;;;;;;;59.13;23.27;;;;;;;;;;4992103;28;20110;-59
2022/12/16 02:17:53;;;;;;;55.72;24.70;;;;;;;;;;4993256;28;20041;-59
2022/12/16 02:20:25;;;;;;;52.60;23.25;;;;;;;;;;4993854;28;20108;-58
2022/12/16 02:23:09;;;;;;;58.95;25.35;;;;;;;;;;4992544;28;20030;-58
2022/12/16 02:25:46;;;;;;;50.00;23.40;;;;;;;;;;4992671;28;20036;-59
2022/12/16 02:28:17;;;;;;;53.78;22.58;;;;;;;;;;4991966;28;20026;-59
2022/12/16 02:30:46;;;;;;;53.67;24.17;;;;;;;;;;4993590;28;20034;-59
2022/12/16 02:33:12;;;;;;;53.65;23.70;;;;;;;;;;5007277;28;20388;-60
2022/12/16 02:35:44;;;;;;;64.45;25.17;;;;;;;;;;4990165;28;21021;-59
2022/12/16 02:38:16;;;;;;;54.20;23.45;;;;;;;;;;4994694;28;20030;-59
2022/12/16 02:40:41;;;;;;;54.10;24.15;;;;;;;;;;4992440;28;20884;-59
2022/12/16 02:43:10;;;;;;;53.30;24.35;;;;;;;;;;4992875;28;20030;-58
2022/12/16 02:45:35;;;;;;;62.83;26.33;;;;;;;;;;4992102;28;20067;-59
2022/12/16 02:48:01;;;;;;;58.83;25.15;;;;;;;;;;4988077;28;20516;-59
2022/12/16 02:50:38;;;;;;;58.90;25.52;;;;;;;;;;4998466;28;20667;-59
2022/12/16 02:53:04;;;;;;;58.65;24.92;;;;;;;;;;4993699;28;20121;-59
2022/12/16 02:55:44;;;;;;;58.42;24.20;;;;;;;;;;4990830;28;20054;-60
2022/12/16 02:58:10;;;;;;;54.55;23.33;;;;;;;;;;5005865;28;20038;-59
2022/12/16 03:00:58;;;;;;;52.90;23.73;;;;;;;;;;4994340;28;20295;-59
2022/12/16 03:03:26;;;;;;;53.67;23.75;;;;;;;;;;4992828;28;20053;-60
2022/12/16 03:05:53;;;;;;;62.83;24.17;;;;;;;;;;4993273;28;20690;-58
2022/12/16 03:08:23;;;;;;;67.00;27.73;;;;;;;;;;4990624;28;20084;-59
2022/12/16 03:10:51;;;;;;;53.88;23.75;;;;;;;;;;4991216;28;20571;-58
2022/12/16 03:13:18;;;;;;;57.75;24.55;;;;;;;;;;4990464;28;20030;-59
2022/12/16 03:15:44;;;;;;;54.65;25.58;;;;;;;;;;4991326;28;20030;-59
2022/12/16 03:18:11;;;;;;;58.05;24.88;;;;;;;;;;4992311;28;20081;-59
2022/12/16 03:20:42;;;;;;;63.88;26.60;;;;;;;;;;4993362;28;20061;-61
2022/12/16 03:23:10;;;;;;;57.50;24.75;;;;;;;;;;4991238;28;20054;-60
2022/12/16 03:25:37;;;;;;;68.32;25.00;;;;;;;;;;4995361;28;20031;-59
2022/12/16 03:28:10;;;;;;;60.33;26.42;;;;;;;;;;4993170;28;20120;-59
2022/12/16 03:30:38;;;;;;;60.58;25.08;;;;;;;;;;4997276;28;20029;-59
2022/12/16 03:33:07;;;;;;;64.68;26.13;;;;;;;;;;4991946;28;20038;-60
2022/12/16 03:35:37;;;;;;;59.28;25.45;;;;;;;;;;4991956;28;20113;-59
2022/12/16 03:38:04;;;;;;;59.38;25.65;;;;;;;;;;4992545;28;20418;-59
2022/12/16 03:40:30;;;;;;;63.00;25.40;;;;;;;;;;4992017;28;20058;-58
2022/12/16 03:42:56;;;;;;;61.55;26.65;;;;;;;;;;4990966;28;20107;-59
2022/12/16 03:45:23;;;;;;;58.63;26.48;;;;;;;;;;4991593;28;20461;-60
2022/12/16 03:47:49;;;;;;;60.22;26.35;;;;;;;;;;4990656;28;20493;-60
2022/12/16 03:50:16;;;;;;;56.83;24.40;;;;;;;;;;4987762;28;20045;-60
2022/12/16 03:52:41;;;;;;;58.33;26.02;;;;;;;;;;4994570;28;20402;-60
2022/12/16 03:55:07;;;;;;;67.50;26.33;;;;;;;;;;4991850;28;20492;-59
2022/12/16 03:57:32;;;;;;;60.05;25.90;;;;;;;;;;4992146;28;20026;-59
2022/12/16 03:59:57;;;;;;;66.00;25.45;;;;;;;;;;4991286;28;20045;-59
2022/12/16 04:02:23;;;;;;;62.78;26.35;;;;;;;;;;4987525;28;20161;-59
2022/12/16 04:04:48;;;;;;;62.65;26.67;;;;;;;;;;4990614;28;20109;-59
2022/12/16 04:07:19;;;;;;;63.35;26.25;;;;;;;;;;4992159;28;20061;-59
2022/12/16 04:09:45;;;;;;;66.55;26.35;;;;;;;;;;5001301;28;20035;-59
2022/12/16 04:25:55;;;;;;;71.35;28.80;;;;;;;;;;4996944;28;20026;-59
2022/12/16 04:28:20;;;;;;;69.10;27.88;;;;;;;;;;4995166;28;20022;-58
2022/12/16 04:30:45;;;;;;;61.30;26.85;;;;;;;;;;4995191;28;20045;-60
